LFST/SXB METAR and TAF weather

Enter ICAO airport designator
Station Type Date Time Source
LFST METAR 2020/07/11 17:00 UTC NOAA

LFST 111700Z AUTO 31008KT 280V360 CAVOK 24/06 Q1023 NOSIG


Station Type Date Time Source
LFST Decoded METAR 2020/07/11 17:00 UTC NOAA

Strasbourg, France (LFST) 48-33N 007-38E 154M
Jul 11, 2020 - 01:00 PM EDT / 2020.07.11 1700 UTC
Wind: from the NW (310 degrees) at 9 MPH (8 KT) (direction variable):0
Visibility: greater than 7 mile(s):0
Temperature: 75 F (24 C)
Dew Point: 42 F (6 C)
Relative Humidity: 31%
Pressure (altimeter): 30.21 in. Hg (1023 hPa)
ob: LFST 111700Z AUTO 31008KT 280V360 CAVOK 24/06 Q1023 NOSIG
cycle: 17

Station Type Date Time Source
LFST TAF 2020/07/11 12:26 UTC NOAA

TAF LFST 111102Z 1112/1212 02008KT CAVOK

Example: see airport list